Port Huron, MI

7:30 PM EST on November 18, 2017 (GMT -0500)
Saint Clair County International

Weather History for KPHN - February, 2014

Change the Weather History Date:

Friday, February 7, 2014

  Actual Average (KMTC) Record (KMTC)
Temperature  
Mean Temperature 7 °F -  
Max Temperature 14 °F 29 °F 53 °F (2017)
Min Temperature 0 °F 15 °F -7 °F (1967)
Degree Days  
Heating Degree Days 58    
Moisture  
Dew Point -2 °F    
Average Humidity 68    
Maximum Humidity 85    
Minimum Humidity 57    
Precipitation  
Precipitation 0.00 in - - ()
Sea Level Pressure  
Sea Level Pressure 30.25 in    
Wind  
Wind Speed 8 mph (SSW)    
Max Wind Speed 14 mph    
Max Gust Speed 20 mph    
Visibility 10 miles    
Events      
Averages and records for this station are not official NWS values.
T = Trace of Precipitation, MM = Missing Value Source: NWS Daily Summary

Daily Weather History Graph

Daily Weather History Graph

Search for Another Location

Airport or City:

Trip Planner

Search our weather history database for the weather conditions in past years. The results will help you decide how hot, cold, wet, or windy it might be!

Date:

Astronomy

Feb. 07, 2014 Rise Set
Actual Time 7:38 AM EST 5:51 PM EST
Civil Twilight 7:08 AM EST 6:20 PM EST
Nautical Twilight 6:34 AM EST 6:54 PM EST
Astronomical Twilight 6:01 AM EST 7:27 PM EST
Moon 12:00 PM EST (2/7) 1:54 AM EST (2/7)
Length of Visible Light 11h 12m
Length of Day
10h 13m
First Quarter, 59% of the Moon is Illuminated
Feb 7
First Quarter
Feb 14
Full
Feb 22
Last Quarter
Mar 1
New
Mar 8
First Quarter

Hourly Weather History & Observations

Time (EST) Temp. Windchill Dew Point Humidity Pressure Visibility Wind Dir Wind Speed Gust Speed Precip Events Conditions
12:18 AM 10.4 °F -1.5 °F -0.4 °F 62% 30.25 in 10.0 mi SW 8.1 mph - N/A   Overcast
12:38 AM 10.4 °F -0.4 °F -0.4 °F 62% 30.25 in 10.0 mi WSW 6.9 mph - N/A   Overcast
12:58 AM 10.4 °F 0.8 °F -0.4 °F 62% 30.25 in 10.0 mi WSW 5.8 mph - N/A   Overcast
1:18 AM 8.6 °F -3.7 °F -0.4 °F 67% 30.24 in 10.0 mi SW 8.1 mph - N/A   Overcast
1:38 AM 8.6 °F -2.6 °F -0.4 °F 67% 30.24 in 10.0 mi SW 6.9 mph - N/A   Mostly Cloudy
1:58 AM 8.6 °F -2.6 °F -0.4 °F 67% 30.25 in 10.0 mi SW 6.9 mph - N/A   Mostly Cloudy
2:18 AM 6.8 °F -4.8 °F -0.4 °F 72% 30.25 in 10.0 mi SW 6.9 mph - N/A   Scattered Clouds
2:38 AM 6.8 °F -5.9 °F -0.4 °F 72% 30.24 in 10.0 mi SW 8.1 mph - N/A   Clear
2:58 AM 6.8 °F -4.8 °F -2.2 °F 67% 30.24 in 10.0 mi SW 6.9 mph - N/A   Clear
3:18 AM 5.0 °F -5.6 °F -2.2 °F 72% 30.24 in 10.0 mi SW 5.8 mph - N/A   Clear
3:38 AM 5.0 °F -4.1 °F -2.2 °F 72% 30.24 in 10.0 mi SW 4.6 mph - N/A   Clear
3:58 AM 3.2 °F -6.2 °F -2.2 °F 78% 30.24 in 10.0 mi SW 4.6 mph - N/A   Clear
4:18 AM 3.2 °F -6.2 °F -2.2 °F 78% 30.24 in 10.0 mi SW 4.6 mph - N/A   Clear
4:38 AM 3.2 °F -7.8 °F -2.2 °F 78% 30.25 in 10.0 mi SW 5.8 mph - N/A   Clear
4:58 AM 3.2 °F -6.2 °F -4.0 °F 72% 30.25 in 10.0 mi SSW 4.6 mph - N/A   Clear
5:18 AM 1.4 °F -8.3 °F -4.0 °F 78% 30.26 in 10.0 mi SSW 4.6 mph - N/A   Clear
5:38 AM 1.4 °F -8.3 °F -4.0 °F 78% 30.25 in 10.0 mi SSW 4.6 mph - N/A   Mostly Cloudy
5:58 AM 1.4 °F -8.3 °F -4.0 °F 78% 30.24 in 10.0 mi South 4.6 mph - N/A   Overcast
6:18 AM -0.4 °F -12.0 °F -4.0 °F 85% 30.24 in 10.0 mi South 5.8 mph - N/A   Overcast
6:38 AM 1.4 °F -12.5 °F -4.0 °F 78% 30.24 in 10.0 mi SSW 8.1 mph - N/A   Overcast
6:58 AM 1.4 °F -12.5 °F -4.0 °F 78% 30.24 in 10.0 mi SSW 8.1 mph - N/A   Overcast
7:18 AM 1.4 °F -12.5 °F -4.0 °F 78% 30.24 in 10.0 mi SSW 8.1 mph - N/A   Overcast
7:38 AM 1.4 °F -12.5 °F -4.0 °F 78% 30.25 in 10.0 mi SSW 8.1 mph - N/A   Overcast
7:58 AM 1.4 °F -12.5 °F -4.0 °F 78% 30.26 in 10.0 mi SSW 8.1 mph - N/A   Overcast
8:18 AM 1.4 °F -14.5 °F -4.0 °F 78% 30.26 in 10.0 mi SSW 10.4 mph - N/A   Overcast
8:38 AM 1.4 °F -13.5 °F -4.0 °F 78% 30.26 in 10.0 mi SSW 9.2 mph - N/A   Overcast
8:58 AM 3.2 °F -11.3 °F -4.0 °F 72% 30.27 in 10.0 mi SSW 9.2 mph - N/A   Overcast
9:18 AM 3.2 °F -11.3 °F -4.0 °F 72% 30.27 in 10.0 mi SSW 9.2 mph - N/A   Mostly Cloudy
9:38 AM 3.2 °F -13.1 °F -4.0 °F 72% 30.27 in 10.0 mi South 11.5 mph - N/A   Scattered Clouds
9:58 AM 3.2 °F -12.2 °F -4.0 °F 72% 30.27 in 10.0 mi SSW 10.4 mph - N/A   Mostly Cloudy
10:18 AM 3.2 °F -13.9 °F -4.0 °F 72% 30.27 in 10.0 mi SSW 12.7 mph 16.1 mph N/A   Mostly Cloudy
10:38 AM 3.2 °F -12.2 °F -4.0 °F 72% 30.27 in 10.0 mi SSW 10.4 mph - N/A   Scattered Clouds
10:58 AM 5.0 °F -12.3 °F -2.2 °F 72% 30.27 in 2.0 mi SSW 13.8 mph - N/A   Haze
11:18 AM 6.8 °F -7.8 °F -2.2 °F 67% 30.27 in 10.0 mi SSW 10.4 mph - N/A   Scattered Clouds
11:38 AM 8.6 °F -6.3 °F -0.4 °F 67% 30.27 in 10.0 mi SSW 11.5 mph 17.3 mph N/A   Mostly Cloudy
11:58 AM 10.4 °F -4.1 °F -0.4 °F 62% 30.26 in 7.0 mi SSW 11.5 mph 18.4 mph N/A   Overcast
12:18 PM 10.4 °F -2.4 °F -0.4 °F 62% 30.25 in 10.0 mi SW 9.2 mph - N/A   Overcast
12:38 PM 10.4 °F -1.5 °F -0.4 °F 62% 30.24 in 10.0 mi SW 8.1 mph - N/A   Overcast
12:58 PM 10.4 °F -5.4 °F -0.4 °F 62% 30.24 in 7.0 mi SSW 13.8 mph 17.3 mph N/A   Scattered Clouds
1:18 PM 10.4 °F -4.8 °F -0.4 °F 62% 30.23 in 10.0 mi SSW 12.7 mph 17.3 mph N/A   Clear
1:38 PM 10.4 °F -4.1 °F -0.4 °F 62% 30.23 in 7.0 mi SSW 11.5 mph 18.4 mph N/A   Clear
1:58 PM 12.2 °F -0.2 °F 1.4 °F 62% 30.23 in 10.0 mi SSW 9.2 mph - N/A   Clear
2:18 PM 14.0 °F 0.5 °F 1.4 °F 57% 30.22 in 10.0 mi SSW 11.5 mph - N/A   Clear
2:38 PM 12.2 °F -3.1 °F 1.4 °F 62% 30.22 in 10.0 mi SSW 13.8 mph 19.6 mph N/A   Clear
2:58 PM 14.0 °F -0.8 °F 1.4 °F 57% 30.22 in 10.0 mi SSW 13.8 mph - N/A   Clear
3:18 PM 14.0 °F 0.5 °F 1.4 °F 57% 30.22 in 10.0 mi SSW 11.5 mph - N/A   Clear
3:38 PM 14.0 °F 2.0 °F 1.4 °F 57% 30.23 in 10.0 mi SSW 9.2 mph - N/A   Clear
3:58 PM 14.0 °F -0.2 °F 1.4 °F 57% 30.23 in 10.0 mi SSW 12.7 mph - N/A   Clear
4:18 PM 14.0 °F -0.8 °F 1.4 °F 57% 30.23 in 10.0 mi SSW 13.8 mph - N/A   Clear
4:38 PM 12.2 °F -1.0 °F 1.4 °F 62% 30.24 in 10.0 mi SSW 10.4 mph - N/A   Clear
4:58 PM 14.0 °F 0.5 °F 1.4 °F 57% 30.24 in 10.0 mi SSW 11.5 mph - N/A   Clear
5:18 PM 12.2 °F 0.7 °F 1.4 °F 62% 30.24 in 10.0 mi SSW 8.1 mph - N/A   Clear
5:38 PM 12.2 °F 4.3 °F -0.4 °F 57% 30.25 in 10.0 mi WSW 4.6 mph - N/A   Clear
5:58 PM 12.2 °F 0.7 °F -0.4 °F 57% 30.25 in 10.0 mi WSW 8.1 mph - N/A   Clear
6:18 PM 12.2 °F -0.2 °F -0.4 °F 57% 30.26 in 10.0 mi WSW 9.2 mph - N/A   Clear
6:38 PM 10.4 °F -0.4 °F -0.4 °F 62% 30.26 in 10.0 mi WSW 6.9 mph - N/A   Clear
6:58 PM 10.4 °F 2.2 °F -2.2 °F 57% 30.27 in 10.0 mi SW 4.6 mph - N/A   Clear
7:18 PM 6.8 °F -4.8 °F -2.2 °F 67% 30.27 in 10.0 mi SSW 6.9 mph - N/A   Clear
7:38 PM 6.8 °F -3.5 °F -2.2 °F 67% 30.28 in 10.0 mi SSW 5.8 mph - N/A   Clear
7:58 PM 5.0 °F -6.9 °F -4.0 °F 66% 30.28 in 10.0 mi SSW 6.9 mph - N/A   Clear
8:18 PM 5.0 °F -5.6 °F -4.0 °F 66% 30.27 in 10.0 mi SSW 5.8 mph - N/A   Clear
8:38 PM 5.0 °F -6.9 °F -4.0 °F 66% 30.28 in 10.0 mi SSW 6.9 mph - N/A   Clear
8:58 PM 5.0 °F -8.1 °F -4.0 °F 66% 30.28 in 10.0 mi SSW 8.1 mph - N/A   Clear
9:18 PM 5.0 °F -8.1 °F -4.0 °F 66% 30.27 in 10.0 mi SSW 8.1 mph - N/A   Clear
9:38 PM 5.0 °F -8.1 °F -4.0 °F 66% 30.27 in 10.0 mi SW 8.1 mph - N/A   Clear
9:58 PM 5.0 °F -5.6 °F -4.0 °F 66% 30.27 in 10.0 mi SSW 5.8 mph - N/A   Clear
10:18 PM 3.2 °F -9.1 °F -5.8 °F 66% 30.27 in 10.0 mi SSW 6.9 mph - N/A   Clear
10:38 PM 3.2 °F -9.1 °F -4.0 °F 72% 30.27 in 10.0 mi SSW 6.9 mph - N/A   Clear
10:58 PM 3.2 °F -7.8 °F -5.8 °F 66% 30.27 in 10.0 mi SSW 5.8 mph - N/A   Clear
11:18 PM 3.2 °F -7.8 °F -5.8 °F 66% 30.27 in 10.0 mi SSW 5.8 mph - N/A   Clear
11:38 PM 3.2 °F -7.8 °F -4.0 °F 72% 30.27 in 10.0 mi SW 5.8 mph - N/A   Clear
11:58 PM 3.2 °F -10.3 °F -4.0 °F 72% 30.27 in 10.0 mi SW 8.1 mph - N/A   Clear